sensor_id;sensor_type;location;lat;lon;timestamp;pressure;altitude;pressure_sealevel;temperature;humidity
71697;BME280;68167;59.120;37.898;2023-09-07T00:00:15;100367.50;;;8.68;78.02
71697;BME280;68167;59.120;37.898;2023-09-07T00:02:42;100365.78;;;8.62;78.09
71697;BME280;68167;59.120;37.898;2023-09-07T00:05:08;100361.72;;;8.59;78.28
71697;BME280;68167;59.120;37.898;2023-09-07T00:07:35;100358.59;;;8.50;78.17
71697;BME280;68167;59.120;37.898;2023-09-07T00:10:02;100364.59;;;8.57;78.50
71697;BME280;68167;59.120;37.898;2023-09-07T00:12:30;100365.88;;;8.55;78.47
71697;BME280;68167;59.120;37.898;2023-09-07T00:14:57;100345.34;;;8.39;78.91
71697;BME280;68167;59.120;37.898;2023-09-07T00:17:23;100359.75;;;8.43;78.39
71697;BME280;68167;59.120;37.898;2023-09-07T00:19:49;100325.31;;;8.24;78.25
71697;BME280;68167;59.120;37.898;2023-09-07T00:22:17;100396.13;;;8.66;78.46
71697;BME280;68167;59.120;37.898;2023-09-07T00:24:44;100356.75;;;8.39;78.27
71697;BME280;68167;59.120;37.898;2023-09-07T00:27:11;100361.84;;;8.41;77.74
71697;BME280;68167;59.120;37.898;2023-09-07T00:29:38;100402.47;;;8.65;78.39
71697;BME280;68167;59.120;37.898;2023-09-07T00:32:05;100393.13;;;8.62;78.37
71697;BME280;68167;59.120;37.898;2023-09-07T00:34:33;100406.38;;;8.62;77.78
71697;BME280;68167;59.120;37.898;2023-09-07T00:37:00;100387.31;;;8.53;78.23
71697;BME280;68167;59.120;37.898;2023-09-07T00:39:26;100396.22;;;8.59;78.62
71697;BME280;68167;59.120;37.898;2023-09-07T00:41:52;100397.72;;;8.55;78.08
71697;BME280;68167;59.120;37.898;2023-09-07T00:44:19;100351.63;;;8.26;78.43
71697;BME280;68167;59.120;37.898;2023-09-07T00:46:45;100378.22;;;8.38;78.62
71697;BME280;68167;59.120;37.898;2023-09-07T00:49:12;100341.22;;;8.13;78.82
71697;BME280;68167;59.120;37.898;2023-09-07T00:51:38;100371.13;;;8.32;78.67
71697;BME280;68167;59.120;37.898;2023-09-07T00:54:05;100416.75;;;8.52;78.32
71697;BME280;68167;59.120;37.898;2023-09-07T00:56:31;100430.13;;;8.57;78.39
71697;BME280;68167;59.120;37.898;2023-09-07T00:59:00;100401.41;;;8.42;79.30
71697;BME280;68167;59.120;37.898;2023-09-07T01:01:27;100421.47;;;8.50;78.21
71697;BME280;68167;59.120;37.898;2023-09-07T01:03:56;100366.47;;;8.15;78.79
71697;BME280;68167;59.120;37.898;2023-09-07T01:06:30;100395.22;;;8.30;78.66
71697;BME280;68167;59.120;37.898;2023-09-07T01:09:03;100401.63;;;8.41;78.97
71697;BME280;68167;59.120;37.898;2023-09-07T01:11:37;100384.13;;;8.21;79.06
71697;BME280;68167;59.120;37.898;2023-09-07T01:14:04;100424.13;;;8.50;78.72
71697;BME280;68167;59.120;37.898;2023-09-07T01:16:34;100414.19;;;8.45;79.13
71697;BME280;68167;59.120;37.898;2023-09-07T01:19:02;100388.97;;;8.24;78.73
71697;BME280;68167;59.120;37.898;2023-09-07T01:21:38;100406.72;;;8.42;78.41
71697;BME280;68167;59.120;37.898;2023-09-07T01:24:07;100391.63;;;8.24;78.70
71697;BME280;68167;59.120;37.898;2023-09-07T01:26:35;100436.47;;;8.44;79.34
71697;BME280;68167;59.120;37.898;2023-09-07T01:29:06;100429.31;;;8.45;78.94
71697;BME280;68167;59.120;37.898;2023-09-07T01:31:36;100422.84;;;8.41;79.05
71697;BME280;68167;59.120;37.898;2023-09-07T01:34:07;100423.66;;;8.41;78.90
71697;BME280;68167;59.120;37.898;2023-09-07T01:36:35;100385.47;;;8.12;79.19
71697;BME280;68167;59.120;37.898;2023-09-07T01:39:04;100421.31;;;8.33;78.82
71697;BME280;68167;59.120;37.898;2023-09-07T01:41:34;100424.78;;;8.34;79.33
71697;BME280;68167;59.120;37.898;2023-09-07T01:44:00;100421.53;;;8.32;79.33
71697;BME280;68167;59.120;37.898;2023-09-07T01:46:26;100382.09;;;8.05;79.53
71697;BME280;68167;59.120;37.898;2023-09-07T01:48:53;100445.91;;;8.40;79.62
71697;BME280;68167;59.120;37.898;2023-09-07T01:51:19;100407.03;;;8.16;78.95
71697;BME280;68167;59.120;37.898;2023-09-07T01:53:47;100427.22;;;8.35;79.71
71697;BME280;68167;59.120;37.898;2023-09-07T01:56:18;100352.19;;;7.86;79.19
71697;BME280;68167;59.120;37.898;2023-09-07T01:58:44;100446.38;;;8.37;79.10
71697;BME280;68167;59.120;37.898;2023-09-07T02:01:27;100422.72;;;8.36;79.14
71697;BME280;68167;59.120;37.898;2023-09-07T02:03:55;100391.00;;;8.11;78.98
71697;BME280;68167;59.120;37.898;2023-09-07T02:06:21;100433.78;;;8.33;79.28
71697;BME280;68167;59.120;37.898;2023-09-07T02:08:48;100430.59;;;8.24;79.63
71697;BME280;68167;59.120;37.898;2023-09-07T02:11:15;100439.28;;;8.31;79.63
71697;BME280;68167;59.120;37.898;2023-09-07T02:13:41;100428.91;;;8.30;79.66
71697;BME280;68167;59.120;37.898;2023-09-07T02:16:08;100383.22;;;7.98;79.13
71697;BME280;68167;59.120;37.898;2023-09-07T02:18:38;100427.50;;;8.27;79.80
71697;BME280;68167;59.120;37.898;2023-09-07T02:21:29;100410.59;;;8.10;79.69
71697;BME280;68167;59.120;37.898;2023-09-07T02:23:56;100445.19;;;8.33;79.22
71697;BME280;68167;59.120;37.898;2023-09-07T02:26:22;100440.31;;;8.30;79.37
71697;BME280;68167;59.120;37.898;2023-09-07T02:28:48;100416.50;;;8.12;79.27
71697;BME280;68167;59.120;37.898;2023-09-07T02:31:15;100452.47;;;8.38;79.84
71697;BME280;68167;59.120;37.898;2023-09-07T02:33:41;100458.16;;;8.41;79.31
71697;BME280;68167;59.120;37.898;2023-09-07T02:36:07;100429.66;;;8.18;80.01
71697;BME280;68167;59.120;37.898;2023-09-07T02:38:33;100455.94;;;8.38;79.35
71697;BME280;68167;59.120;37.898;2023-09-07T02:41:00;100459.41;;;8.39;79.09
71697;BME280;68167;59.120;37.898;2023-09-07T02:43:27;100435.69;;;8.25;79.87
71697;BME280;68167;59.120;37.898;2023-09-07T02:45:53;100474.16;;;8.46;79.46
71697;BME280;68167;59.120;37.898;2023-09-07T02:48:22;100454.91;;;8.39;79.39
71697;BME280;68167;59.120;37.898;2023-09-07T02:50:48;100470.25;;;8.49;79.12
71697;BME280;68167;59.120;37.898;2023-09-07T02:53:16;100422.06;;;8.22;79.85
71697;BME280;68167;59.120;37.898;2023-09-07T02:55:43;100466.78;;;8.48;79.87
71697;BME280;68167;59.120;37.898;2023-09-07T02:58:11;100442.53;;;8.33;79.54
71697;BME280;68167;59.120;37.898;2023-09-07T03:00:42;100437.44;;;8.32;79.70
71697;BME280;68167;59.120;37.898;2023-09-07T03:03:11;100404.50;;;8.09;79.21
71697;BME280;68167;59.120;37.898;2023-09-07T03:05:42;100436.03;;;8.29;79.22
71697;BME280;68167;59.120;37.898;2023-09-07T03:08:08;100440.75;;;8.27;79.43
71697;BME280;68167;59.120;37.898;2023-09-07T03:10:38;100485.72;;;8.52;79.88
71697;BME280;68167;59.120;37.898;2023-09-07T03:13:07;100491.03;;;8.52;79.34
71697;BME280;68167;59.120;37.898;2023-09-07T03:15:33;100446.06;;;8.27;79.51
71697;BME280;68167;59.120;37.898;2023-09-07T03:18:00;100445.63;;;8.30;78.89
71697;BME280;68167;59.120;37.898;2023-09-07T03:20:27;100439.94;;;8.26;78.97
71697;BME280;68167;59.120;37.898;2023-09-07T03:22:53;100497.88;;;8.59;79.54
71697;BME280;68167;59.120;37.898;2023-09-07T03:25:19;100500.66;;;8.65;79.74
71697;BME280;68167;59.120;37.898;2023-09-07T03:27:46;100459.84;;;8.36;79.51
71697;BME280;68167;59.120;37.898;2023-09-07T03:30:13;100480.06;;;8.48;79.34
71697;BME280;68167;59.120;37.898;2023-09-07T03:32:39;100502.84;;;8.68;79.51
71697;BME280;68167;59.120;37.898;2023-09-07T03:35:06;100478.81;;;8.51;79.66
71697;BME280;68167;59.120;37.898;2023-09-07T03:37:36;100515.22;;;8.74;79.24
71697;BME280;68167;59.120;37.898;2023-09-07T03:40:06;100511.19;;;8.71;79.92
71697;BME280;68167;59.120;37.898;2023-09-07T03:42:35;100510.59;;;8.69;79.68
71697;BME280;68167;59.120;37.898;2023-09-07T03:45:03;100512.00;;;8.72;79.57
71697;BME280;68167;59.120;37.898;2023-09-07T03:47:29;100536.72;;;8.84;79.59
71697;BME280;68167;59.120;37.898;2023-09-07T03:49:57;100492.91;;;8.63;79.39
71697;BME280;68167;59.120;37.898;2023-09-07T03:52:25;100500.22;;;8.68;79.60
71697;BME280;68167;59.120;37.898;2023-09-07T03:54:57;100507.59;;;8.66;78.96
71697;BME280;68167;59.120;37.898;2023-09-07T03:57:25;100544.00;;;8.88;79.17
71697;BME280;68167;59.120;37.898;2023-09-07T03:59:51;100491.75;;;8.59;79.87
71697;BME280;68167;59.120;37.898;2023-09-07T04:02:17;100536.72;;;8.84;79.99
71697;BME280;68167;59.120;37.898;2023-09-07T04:04:50;100508.41;;;8.66;79.64
71697;BME280;68167;59.120;37.898;2023-09-07T04:07:17;100524.34;;;8.78;79.25
71697;BME280;68167;59.120;37.898;2023-09-07T04:09:46;100547.03;;;8.92;79.85
71697;BME280;68167;59.120;37.898;2023-09-07T04:12:13;100546.66;;;8.88;79.81
71697;BME280;68167;59.120;37.898;2023-09-07T04:14:39;100512.88;;;8.66;79.60
71697;BME280;68167;59.120;37.898;2023-09-07T04:17:07;100478.44;;;8.47;79.05
71697;BME280;68167;59.120;37.898;2023-09-07T04:19:33;100538.00;;;8.81;79.44
71697;BME280;68167;59.120;37.898;2023-09-07T04:22:00;100548.06;;;8.91;79.59
71697;BME280;68167;59.120;37.898;2023-09-07T04:24:27;100546.44;;;8.90;79.74
71697;BME280;68167;59.120;37.898;2023-09-07T04:26:58;100458.66;;;8.32;79.39
71697;BME280;68167;59.120;37.898;2023-09-07T04:29:26;100572.44;;;9.00;79.12
71697;BME280;68167;59.120;37.898;2023-09-07T04:31:53;100578.13;;;9.03;79.55
71697;BME280;68167;59.120;37.898;2023-09-07T04:34:21;100532.31;;;8.78;80.03
71697;BME280;68167;59.120;37.898;2023-09-07T04:36:49;100543.88;;;8.83;80.02
71697;BME280;68167;59.120;37.898;2023-09-07T04:39:15;100590.22;;;9.11;79.28
71697;BME280;68167;59.120;37.898;2023-09-07T04:41:42;100586.53;;;9.12;80.13
71697;BME280;68167;59.120;37.898;2023-09-07T04:44:09;100546.56;;;8.95;79.48
71697;BME280;68167;59.120;37.898;2023-09-07T04:46:35;100585.06;;;9.16;79.64
71697;BME280;68167;59.120;37.898;2023-09-07T04:49:02;100582.97;;;9.18;79.22
71697;BME280;68167;59.120;37.898;2023-09-07T04:51:28;100579.75;;;9.16;79.87
71697;BME280;68167;59.120;37.898;2023-09-07T04:53:55;100578.13;;;9.15;79.51
71697;BME280;68167;59.120;37.898;2023-09-07T04:56:22;100610.75;;;9.34;79.89
71697;BME280;68167;59.120;37.898;2023-09-07T04:58:48;100561.59;;;9.13;79.44
71697;BME280;68167;59.120;37.898;2023-09-07T05:01:15;100558.84;;;9.19;79.03
71697;BME280;68167;59.120;37.898;2023-09-07T05:03:42;100551.91;;;9.18;79.41
71697;BME280;68167;59.120;37.898;2023-09-07T05:06:11;100593.69;;;9.53;79.12
71697;BME280;68167;59.120;37.898;2023-09-07T05:08:38;100530.31;;;9.15;79.40
71697;BME280;68167;59.120;37.898;2023-09-07T05:11:04;100589.97;;;9.54;79.72
71697;BME280;68167;59.120;37.898;2023-09-07T05:13:31;100537.38;;;9.33;78.73
71697;BME280;68167;59.120;37.898;2023-09-07T05:16:00;100577.16;;;9.63;79.24
71697;BME280;68167;59.120;37.898;2023-09-07T05:18:27;100615.19;;;9.98;78.55
71697;BME280;68167;59.120;37.898;2023-09-07T05:20:54;100585.69;;;9.88;78.83
71697;BME280;68167;59.120;37.898;2023-09-07T05:23:21;100612.28;;;10.11;78.45
71697;BME280;68167;59.120;37.898;2023-09-07T05:25:51;100579.22;;;10.07;78.38
71697;BME280;68167;59.120;37.898;2023-09-07T05:28:23;100614.13;;;10.34;77.84
71697;BME280;68167;59.120;37.898;2023-09-07T05:30:51;100611.59;;;10.39;78.00
71697;BME280;68167;59.120;37.898;2023-09-07T05:33:20;100613.50;;;10.44;78.03
71697;BME280;68167;59.120;37.898;2023-09-07T05:35:47;100629.47;;;10.55;77.65
71697;BME280;68167;59.120;37.898;2023-09-07T05:38:14;100625.53;;;10.58;76.88
71697;BME280;68167;59.120;37.898;2023-09-07T05:40:43;100613.50;;;10.44;76.56
71697;BME280;68167;59.120;37.898;2023-09-07T05:43:11;100638.38;;;10.49;76.77
71697;BME280;68167;59.120;37.898;2023-09-07T05:45:41;100612.53;;;10.33;76.70
71697;BME280;68167;59.120;37.898;2023-09-07T05:48:09;100600.38;;;10.26;76.41
71697;BME280;68167;59.120;37.898;2023-09-07T05:50:38;100626.00;;;10.43;76.44
71697;BME280;68167;59.120;37.898;2023-09-07T05:53:05;100595.06;;;10.26;76.52
71697;BME280;68167;59.120;37.898;2023-09-07T05:55:32;100570.28;;;10.13;76.16
71697;BME280;68167;59.120;37.898;2023-09-07T05:57:59;100629.69;;;10.54;76.37
71697;BME280;68167;59.120;37.898;2023-09-07T06:00:27;100610.63;;;10.45;76.08
71697;BME280;68167;59.120;37.898;2023-09-07T06:02:54;100612.56;;;10.50;76.05
71697;BME280;68167;59.120;37.898;2023-09-07T06:05:20;100644.09;;;10.81;76.26
71697;BME280;68167;59.120;37.898;2023-09-07T06:07:48;100643.06;;;10.82;76.48
71697;BME280;68167;59.120;37.898;2023-09-07T06:10:18;100637.13;;;10.92;75.65
71697;BME280;68167;59.120;37.898;2023-09-07T06:12:46;100628.03;;;11.05;75.82
71697;BME280;68167;59.120;37.898;2023-09-07T06:15:13;100648.00;;;11.36;75.74
71697;BME280;68167;59.120;37.898;2023-09-07T06:17:40;100612.63;;;11.23;75.55
71697;BME280;68167;59.120;37.898;2023-09-07T06:20:06;100659.75;;;11.51;75.36
71697;BME280;68167;59.120;37.898;2023-09-07T06:22:33;100629.84;;;11.33;75.54
71697;BME280;68167;59.120;37.898;2023-09-07T06:24:59;100628.16;;;11.43;75.49
71697;BME280;68167;59.120;37.898;2023-09-07T06:27:26;100664.53;;;11.66;75.11
71697;BME280;68167;59.120;37.898;2023-09-07T06:29:52;100632.84;;;11.53;75.42
71697;BME280;68167;59.120;37.898;2023-09-07T06:32:19;100655.25;;;11.69;75.44
71697;BME280;68167;59.120;37.898;2023-09-07T06:34:45;100659.22;;;11.83;75.28
71697;BME280;68167;59.120;37.898;2023-09-07T06:37:12;100632.59;;;11.71;75.38
71697;BME280;68167;59.120;37.898;2023-09-07T06:39:39;100654.44;;;12.02;73.55
71697;BME280;68167;59.120;37.898;2023-09-07T06:42:09;100661.38;;;12.19;72.95
71697;BME280;68167;59.120;37.898;2023-09-07T06:44:43;100668.25;;;12.37;72.49
71697;BME280;68167;59.120;37.898;2023-09-07T06:47:11;100611.50;;;12.03;71.64
71697;BME280;68167;59.120;37.898;2023-09-07T06:49:38;100674.38;;;12.33;70.99
71697;BME280;68167;59.120;37.898;2023-09-07T06:52:04;100665.81;;;12.31;71.42
71697;BME280;68167;59.120;37.898;2023-09-07T06:54:31;100651.03;;;12.06;70.03
71697;BME280;68167;59.120;37.898;2023-09-07T06:56:57;100673.97;;;12.24;70.70
71697;BME280;68167;59.120;37.898;2023-09-07T06:59:23;100656.84;;;12.20;70.41
71697;BME280;68167;59.120;37.898;2023-09-07T07:01:49;100676.72;;;12.29;nan
71697;BME280;68167;59.120;37.898;2023-09-07T07:04:16;100638.75;;;12.05;70.27
71697;BME280;68167;59.120;37.898;2023-09-07T07:06:42;100686.53;;;12.45;69.70
71697;BME280;68167;59.120;37.898;2023-09-07T07:09:08;100665.66;;;12.42;69.61
71697;BME280;68167;59.120;37.898;2023-09-07T07:11:36;100639.13;;;12.36;70.43
71697;BME280;68167;59.120;37.898;2023-09-07T07:14:05;100635.56;;;12.47;69.70
71697;BME280;68167;59.120;37.898;2023-09-07T07:16:31;100609.72;;;12.52;69.54
71697;BME280;68167;59.120;37.898;2023-09-07T07:18:58;100678.94;;;13.03;69.44
71697;BME280;68167;59.120;37.898;2023-09-07T07:21:24;100638.91;;;12.81;69.35
71697;BME280;68167;59.120;37.898;2023-09-07T07:23:51;100656.75;;;12.75;68.92
71697;BME280;68167;59.120;37.898;2023-09-07T07:26:17;100678.19;;;12.80;67.54
71697;BME280;68167;59.120;37.898;2023-09-07T07:28:44;100670.16;;;12.80;66.67
71697;BME280;68167;59.120;37.898;2023-09-07T07:31:10;100653.88;;;12.82;66.62
71697;BME280;68167;59.120;37.898;2023-09-07T07:33:40;100623.31;;;12.73;66.18
71697;BME280;68167;59.120;37.898;2023-09-07T07:36:07;100693.31;;;13.18;66.38
71697;BME280;68167;59.120;37.898;2023-09-07T07:38:33;100675.06;;;13.15;65.79
71697;BME280;68167;59.120;37.898;2023-09-07T07:41:01;100673.81;;;12.96;65.77
71697;BME280;68167;59.120;37.898;2023-09-07T07:43:28;100642.31;;;12.76;65.71
71697;BME280;68167;59.120;37.898;2023-09-07T07:45:55;100672.22;;;13.00;65.57
71697;BME280;68167;59.120;37.898;2023-09-07T07:48:23;100637.66;;;12.89;64.21
71697;BME280;68167;59.120;37.898;2023-09-07T07:50:49;100674.41;;;13.25;64.73
71697;BME280;68167;59.120;37.898;2023-09-07T07:53:16;100662.41;;;13.28;65.06
71697;BME280;68167;59.120;37.898;2023-09-07T07:55:44;100670.38;;;13.49;65.40
71697;BME280;68167;59.120;37.898;2023-09-07T07:58:14;100614.56;;;13.31;64.88
71697;BME280;68167;59.120;37.898;2023-09-07T08:00:41;100666.03;;;13.75;64.44
71697;BME280;68167;59.120;37.898;2023-09-07T08:03:11;100664.66;;;13.73;65.01
71697;BME280;68167;59.120;37.898;2023-09-07T08:05:38;100665.22;;;13.75;64.99
71697;BME280;68167;59.120;37.898;2023-09-07T08:08:07;100674.34;;;13.79;63.28
71697;BME280;68167;59.120;37.898;2023-09-07T08:10:37;100671.41;;;13.80;62.78
71697;BME280;68167;59.120;37.898;2023-09-07T08:13:05;100664.78;;;13.88;62.30
71697;BME280;68167;59.120;37.898;2023-09-07T08:15:33;100647.47;;;14.01;63.70
71697;BME280;68167;59.120;37.898;2023-09-07T08:18:00;100635.25;;;14.15;62.78
71697;BME280;68167;59.120;37.898;2023-09-07T08:20:27;100652.84;;;14.48;59.75
71697;BME280;68167;59.120;37.898;2023-09-07T08:22:55;100637.59;;;14.54;60.63
71697;BME280;68167;59.120;37.898;2023-09-07T08:25:22;100652.41;;;14.66;61.02
71697;BME280;68167;59.120;37.898;2023-09-07T08:27:50;100658.31;;;14.68;61.07
71697;BME280;68167;59.120;37.898;2023-09-07T08:30:16;100643.78;;;14.54;61.65
71697;BME280;68167;59.120;37.898;2023-09-07T08:32:44;100645.34;;;14.45;61.67
71697;BME280;68167;59.120;37.898;2023-09-07T08:35:12;100606.34;;;14.17;61.91
71697;BME280;68167;59.120;37.898;2023-09-07T08:37:40;100665.41;;;14.42;61.76
71697;BME280;68167;59.120;37.898;2023-09-07T08:40:07;100656.34;;;14.48;61.61
71697;BME280;68167;59.120;37.898;2023-09-07T08:42:35;100653.41;;;14.55;60.83
71697;BME280;68167;59.120;37.898;2023-09-07T08:45:08;100594.63;;;14.33;60.10
71697;BME280;68167;59.120;37.898;2023-09-07T08:47:36;100630.69;;;14.63;59.85
71697;BME280;68167;59.120;37.898;2023-09-07T08:50:05;100626.41;;;14.67;59.33
71697;BME280;68167;59.120;37.898;2023-09-07T08:52:34;100662.88;;;14.73;59.31
71697;BME280;68167;59.120;37.898;2023-09-07T08:55:01;100661.47;;;14.55;58.77
71697;BME280;68167;59.120;37.898;2023-09-07T08:57:30;100634.81;;;14.38;58.31
71697;BME280;68167;59.120;37.898;2023-09-07T08:59:58;100642.72;;;14.60;57.96
71697;BME280;68167;59.120;37.898;2023-09-07T09:02:24;100653.81;;;14.89;57.85
71697;BME280;68167;59.120;37.898;2023-09-07T09:04:51;100596.38;;;14.65;57.23
71697;BME280;68167;59.120;37.898;2023-09-07T09:07:19;100648.75;;;15.03;56.72
71697;BME280;68167;59.120;37.898;2023-09-07T09:09:46;100643.63;;;14.96;57.61
71697;BME280;68167;59.120;37.898;2023-09-07T09:12:13;100641.22;;;14.90;57.04
71697;BME280;68167;59.120;37.898;2023-09-07T09:14:42;100589.41;;;14.59;56.74
71697;BME280;68167;59.120;37.898;2023-09-07T09:17:14;100666.97;;;14.91;57.17
71697;BME280;68167;59.120;37.898;2023-09-07T09:19:41;100625.88;;;14.70;57.30
71697;BME280;68167;59.120;37.898;2023-09-07T09:22:08;100644.44;;;14.87;57.17
71697;BME280;68167;59.120;37.898;2023-09-07T09:24:34;100658.66;;;14.97;56.67
71697;BME280;68167;59.120;37.898;2023-09-07T09:27:01;100595.28;;;14.61;56.23
71697;BME280;68167;59.120;37.898;2023-09-07T09:29:28;100652.47;;;14.97;57.02
71697;BME280;68167;59.120;37.898;2023-09-07T09:31:54;100605.78;;;14.67;57.83
71697;BME280;68167;59.120;37.898;2023-09-07T09:34:21;100633.13;;;14.69;57.07
71697;BME280;68167;59.120;37.898;2023-09-07T09:36:48;100669.59;;;14.80;56.62
71697;BME280;68167;59.120;37.898;2023-09-07T09:39:22;100627.69;;;14.54;57.14
71697;BME280;68167;59.120;37.898;2023-09-07T09:41:51;100667.22;;;14.84;57.04
71697;BME280;68167;59.120;37.898;2023-09-07T09:44:20;100654.63;;;15.00;56.48
71697;BME280;68167;59.120;37.898;2023-09-07T09:46:49;100605.03;;;14.92;55.47
71697;BME280;68167;59.120;37.898;2023-09-07T09:49:17;100616.84;;;15.11;55.51
71697;BME280;68167;59.120;37.898;2023-09-07T09:51:50;100593.50;;;15.07;55.14
71697;BME280;68167;59.120;37.898;2023-09-07T09:54:18;100595.16;;;15.23;54.21
71697;BME280;68167;59.120;37.898;2023-09-07T09:56:44;100636.75;;;15.51;54.07
71697;BME280;68167;59.120;37.898;2023-09-07T09:59:14;100594.88;;;15.45;53.21
71697;BME280;68167;59.120;37.898;2023-09-07T10:01:46;100566.16;;;15.20;53.21
71697;BME280;68167;59.120;37.898;2023-09-07T10:04:17;100624.94;;;15.47;50.91
71697;BME280;68167;59.120;37.898;2023-09-07T10:06:54;100585.75;;;15.26;53.23
71697;BME280;68167;59.120;37.898;2023-09-07T10:09:21;100618.78;;;15.46;52.61
71697;BME280;68167;59.120;37.898;2023-09-07T10:11:52;100623.09;;;15.58;51.26
71697;BME280;68167;59.120;37.898;2023-09-07T10:14:20;100624.41;;;15.70;50.58
71697;BME280;68167;59.120;37.898;2023-09-07T10:16:48;100567.50;;;15.48;49.61
71697;BME280;68167;59.120;37.898;2023-09-07T10:19:20;100596.75;;;15.70;49.65
71697;BME280;68167;59.120;37.898;2023-09-07T10:21:47;100570.72;;;15.65;49.79
71697;BME280;68167;59.120;37.898;2023-09-07T10:24:31;100630.53;;;16.17;51.39
71697;BME280;68167;59.120;37.898;2023-09-07T10:27:03;100629.38;;;16.33;50.29
71697;BME280;68167;59.120;37.898;2023-09-07T10:29:45;100595.63;;;16.11;50.94
71697;BME280;68167;59.120;37.898;2023-09-07T10:32:12;100615.41;;;16.31;49.51
71697;BME280;68167;59.120;37.898;2023-09-07T10:34:41;100615.88;;;16.48;50.69
71697;BME280;68167;59.120;37.898;2023-09-07T10:37:11;100625.47;;;16.74;50.01
71697;BME280;68167;59.120;37.898;2023-09-07T10:39:40;100595.66;;;16.71;49.68
71697;BME280;68167;59.120;37.898;2023-09-07T10:42:22;100612.59;;;17.16;48.98
71697;BME280;68167;59.120;37.898;2023-09-07T10:44:50;100618.16;;;17.24;48.29
71697;BME280;68167;59.120;37.898;2023-09-07T10:47:16;100583.72;;;16.87;48.46
71697;BME280;68167;59.120;37.898;2023-09-07T10:49:43;100573.09;;;16.67;48.90
71697;BME280;68167;59.120;37.898;2023-09-07T10:52:09;100605.69;;;16.45;49.05
71697;BME280;68167;59.120;37.898;2023-09-07T10:54:35;100631.53;;;16.26;50.78
71697;BME280;68167;59.120;37.898;2023-09-07T10:57:12;100586.56;;;15.67;51.48
71697;BME280;68167;59.120;37.898;2023-09-07T10:59:47;100615.28;;;15.71;52.48
71697;BME280;68167;59.120;37.898;2023-09-07T11:02:14;100605.06;;;15.94;52.31
71697;BME280;68167;59.120;37.898;2023-09-07T11:04:41;100606.81;;;16.34;53.22
71697;BME280;68167;59.120;37.898;2023-09-07T11:07:07;100625.09;;;16.91;55.08
71697;BME280;68167;59.120;37.898;2023-09-07T11:09:34;100612.72;;;16.95;53.33
71697;BME280;68167;59.120;37.898;2023-09-07T11:12:06;100615.03;;;17.12;52.92
71697;BME280;68167;59.120;37.898;2023-09-07T11:14:34;100607.75;;;17.12;52.30
71697;BME280;68167;59.120;37.898;2023-09-07T11:17:01;100593.84;;;17.00;51.98
71697;BME280;68167;59.120;37.898;2023-09-07T11:19:32;100575.88;;;16.91;50.41
71697;BME280;68167;59.120;37.898;2023-09-07T11:21:59;100629.00;;;17.14;51.30
71697;BME280;68167;59.120;37.898;2023-09-07T11:24:25;100562.03;;;16.73;50.49
71697;BME280;68167;59.120;37.898;2023-09-07T11:26:52;100624.78;;;17.03;50.63
71697;BME280;68167;59.120;37.898;2023-09-07T11:29:18;100614.06;;;16.93;50.96
71697;BME280;68167;59.120;37.898;2023-09-07T11:31:45;100599.94;;;16.77;51.20
71697;BME280;68167;59.120;37.898;2023-09-07T11:34:12;100616.34;;;16.75;50.64
71697;BME280;68167;59.120;37.898;2023-09-07T11:36:40;100620.16;;;16.64;49.85
71697;BME280;68167;59.120;37.898;2023-09-07T11:39:06;100619.94;;;16.45;50.55
71697;BME280;68167;59.120;37.898;2023-09-07T11:41:43;100605.25;;;16.23;50.54
71697;BME280;68167;59.120;37.898;2023-09-07T11:44:10;100624.53;;;16.30;50.31
71697;BME280;68167;59.120;37.898;2023-09-07T11:46:37;100598.59;;;16.00;50.82
71697;BME280;68167;59.120;37.898;2023-09-07T11:49:05;100591.88;;;16.07;51.49
71697;BME280;68167;59.120;37.898;2023-09-07T11:51:33;100551.56;;;16.07;50.69
71697;BME280;68167;59.120;37.898;2023-09-07T11:54:02;100606.66;;;16.74;50.31
71697;BME280;68167;59.120;37.898;2023-09-07T11:56:28;100580.34;;;16.61;49.99
71697;BME280;68167;59.120;37.898;2023-09-07T11:58:54;100592.44;;;16.64;50.84
71697;BME280;68167;59.120;37.898;2023-09-07T12:01:21;100581.44;;;16.60;48.78
71697;BME280;68167;59.120;37.898;2023-09-07T12:03:47;100605.19;;;16.92;49.63
71697;BME280;68167;59.120;37.898;2023-09-07T12:06:14;100613.38;;;17.16;50.27
71697;BME280;68167;59.120;37.898;2023-09-07T12:08:42;100557.75;;;17.06;50.09
71697;BME280;68167;59.120;37.898;2023-09-07T12:11:09;100595.00;;;17.57;49.15
71697;BME280;68167;59.120;37.898;2023-09-07T12:13:35;100530.38;;;17.33;48.39
71697;BME280;68167;59.120;37.898;2023-09-07T12:16:01;100594.63;;;17.74;48.22
71697;BME280;68167;59.120;37.898;2023-09-07T12:18:28;100544.66;;;17.58;48.90
71697;BME280;68167;59.120;37.898;2023-09-07T12:20:54;100584.38;;;17.76;47.31
71697;BME280;68167;59.120;37.898;2023-09-07T12:23:20;100585.25;;;17.66;46.41
71697;BME280;68167;59.120;37.898;2023-09-07T12:25:46;100584.19;;;17.33;46.71
71697;BME280;68167;59.120;37.898;2023-09-07T12:28:17;100604.75;;;17.19;47.21
71697;BME280;68167;59.120;37.898;2023-09-07T12:30:43;100620.19;;;17.03;47.38
71697;BME280;68167;59.120;37.898;2023-09-07T12:33:10;100605.84;;;16.79;47.46
71697;BME280;68167;59.120;37.898;2023-09-07T12:35:37;100539.56;;;16.44;47.15
71697;BME280;68167;59.120;37.898;2023-09-07T12:38:07;100576.75;;;16.86;46.82
71697;BME280;68167;59.120;37.898;2023-09-07T12:40:36;100571.28;;;16.96;46.89
71697;BME280;68167;59.120;37.898;2023-09-07T12:43:02;100544.22;;;16.83;47.21
71697;BME280;68167;59.120;37.898;2023-09-07T12:45:29;100550.59;;;16.92;46.90
71697;BME280;68167;59.120;37.898;2023-09-07T12:47:55;100578.97;;;17.13;47.35